Time;durP1;ratioP1;P1;durP2;ratioP2;P2;SDS_P1;SDS_P2;PMS_P1;PMS_P2;Temp;Humidity;BMP_temperature;BMP_pressure;BME280_temperature;BME280_humidity;BME280_pressure;Samples;Min_cycle;Max_cycle;Signal;HPM_P1;HPM_P2
2021/10/22 00:00:54;;;;;;;3.80;1.42;;;;;;;6.15;90.08;101015.88;6192310;23;20008;-74
2021/10/22 00:03:20;;;;;;;4.88;1.48;;;;;;;6.05;90.41;101016.56;6219329;23;20312;-74
2021/10/22 00:05:45;;;;;;;4.95;1.13;;;;;;;6.04;90.36;101023.16;6218431;23;20017;-74
2021/10/22 00:08:11;;;;;;;2.47;1.08;;;;;;;5.99;90.41;101021.16;6218809;23;20012;-74
2021/10/22 00:10:36;;;;;;;4.10;1.50;;;;;;;5.95;90.05;101008.94;6218988;23;20005;-74
2021/10/22 00:13:02;;;;;;;3.28;1.13;;;;;;;5.94;89.58;101007.28;6218315;23;20008;-74
2021/10/22 00:15:28;;;;;;;6.05;1.30;;;;;;;5.91;90.15;101007.75;6219053;23;20088;-74
2021/10/22 00:17:53;;;;;;;5.15;1.42;;;;;;;5.88;90.38;101013.78;6218848;23;20015;-74
2021/10/22 00:20:19;;;;;;;5.30;1.00;;;;;;;5.84;90.35;101018.09;6218475;23;20054;-75
2021/10/22 00:22:45;;;;;;;5.85;1.40;;;;;;;5.80;90.21;101022.47;6219383;23;20043;-74
2021/10/22 00:25:17;;;;;;;6.78;1.40;;;;;;;5.76;89.89;101010.25;5071227;27;20459;-73
2021/10/22 00:27:43;;;;;;;6.53;1.35;;;;;;;5.75;90.46;101014.09;5060846;28;20037;-73
2021/10/22 00:30:09;;;;;;;2.58;1.33;;;;;;;5.69;90.59;101020.63;5040750;28;20033;-73
2021/10/22 00:32:34;;;;;;;5.70;1.20;;;;;;;5.65;90.75;101012.00;5048019;28;20030;-73
2021/10/22 00:35:00;;;;;;;5.35;1.40;;;;;;;5.59;90.26;101013.81;5084407;28;20112;-73
2021/10/22 00:37:25;;;;;;;4.40;1.15;;;;;;;5.57;90.41;101018.78;5050405;28;20029;-73
2021/10/22 00:39:51;;;;;;;3.85;1.10;;;;;;;5.52;90.48;101024.19;5050939;28;20033;-73
2021/10/22 00:42:17;;;;;;;5.82;1.17;;;;;;;5.49;90.59;101026.56;5053256;28;20056;-73
2021/10/22 00:44:43;;;;;;;3.65;1.20;;;;;;;5.47;90.48;101034.28;5054745;28;20057;-73
2021/10/22 00:47:09;;;;;;;4.45;1.10;;;;;;;5.40;90.40;101028.91;5056573;28;20505;-73
2021/10/22 00:49:34;;;;;;;6.68;1.13;;;;;;;5.35;90.72;101032.41;5056195;28;20033;-73
2021/10/22 00:52:00;;;;;;;7.00;1.42;;;;;;;5.36;90.30;101027.75;5041300;28;21657;-73
2021/10/22 00:54:25;;;;;;;8.07;1.50;;;;;;;5.31;90.58;101025.72;5053463;28;20017;-73
2021/10/22 00:56:51;;;;;;;5.70;1.40;;;;;;;5.29;90.31;101032.53;5053393;28;20032;-73
2021/10/22 00:59:17;;;;;;;4.63;1.45;;;;;;;5.27;90.54;101031.97;5051478;28;20033;-73
2021/10/22 01:01:42;;;;;;;3.05;1.05;;;;;;;5.25;90.64;101031.38;5047855;28;20036;-73
2021/10/22 01:04:08;;;;;;;4.13;1.33;;;;;;;5.24;90.78;101040.75;5066869;28;20382;-73
2021/10/22 01:06:41;;;;;;;5.93;1.35;;;;;;;5.20;90.78;101034.03;5048387;28;20038;-73
2021/10/22 01:09:07;;;;;;;3.70;1.08;;;;;;;5.14;90.67;101042.19;5049049;28;20044;-73
2021/10/22 01:11:33;;;;;;;4.38;1.38;;;;;;;5.14;90.73;101042.19;5057690;28;20037;-73
2021/10/22 01:14:00;;;;;;;4.22;1.25;;;;;;;5.13;90.98;101040.53;5054427;28;20043;-73
2021/10/22 01:16:26;;;;;;;5.95;2.05;;;;;;;5.08;91.19;101045.09;5055636;28;20112;-73
2021/10/22 01:18:51;;;;;;;7.57;1.50;;;;;;;5.06;91.09;101044.50;5066519;28;20029;-73
2021/10/22 01:21:17;;;;;;;8.07;1.70;;;;;;;5.05;91.13;101037.31;5054106;28;20040;-73
2021/10/22 01:23:42;;;;;;;7.35;1.20;;;;;;;5.06;90.58;101039.00;5062030;28;20471;-72
2021/10/22 01:26:08;;;;;;;4.20;1.60;;;;;;;5.04;90.80;101049.41;5052114;28;20033;-74
2021/10/22 01:28:33;;;;;;;2.25;0.90;;;;;;;5.03;90.57;101043.06;5052380;28;20033;-74
2021/10/22 01:30:59;;;;;;;6.25;1.25;;;;;;;5.02;90.42;101046.91;5057844;28;20033;-73
2021/10/22 01:33:24;;;;;;;6.57;1.40;;;;;;;4.95;90.72;101053.63;5061699;28;20032;-74
2021/10/22 01:35:50;;;;;;;2.63;1.00;;;;;;;4.92;90.77;101060.44;5047215;28;20033;-74
2021/10/22 01:38:20;;;;;;;6.43;1.20;;;;;;;4.92;90.84;101060.44;5052251;28;20036;-74
2021/10/22 01:40:46;;;;;;;5.25;1.10;;;;;;;4.87;90.96;101054.84;5026514;28;20036;-74
2021/10/22 01:43:11;;;;;;;3.53;0.93;;;;;;;4.83;91.49;101053.66;5040445;28;20033;-74
2021/10/22 01:45:37;;;;;;;3.95;1.30;;;;;;;4.85;91.19;101062.53;5032424;28;20029;-74
2021/10/22 01:48:03;;;;;;;4.25;1.42;;;;;;;4.81;91.15;101070.41;5036280;28;20079;-74
2021/10/22 01:50:29;;;;;;;5.00;1.70;;;;;;;4.79;90.89;101067.06;5041403;28;20466;-74
2021/10/22 01:52:54;;;;;;;3.55;1.20;;;;;;;4.77;91.16;101062.91;5049198;28;20037;-74
2021/10/22 01:55:20;;;;;;;4.07;1.30;;;;;;;4.77;91.14;101063.72;5043840;28;20064;-74
2021/10/22 01:57:45;;;;;;;2.55;1.20;;;;;;;4.75;91.01;101060.38;5044822;28;20122;-74
2021/10/22 02:00:11;;;;;;;5.53;1.40;;;;;;;4.81;90.79;101069.56;5051360;28;20036;-74
2021/10/22 02:02:36;;;;;;;5.28;1.40;;;;;;;4.74;91.07;101066.13;5044510;28;20104;-73
2021/10/22 02:05:02;;;;;;;6.13;1.65;;;;;;;4.71;91.12;101072.94;5048312;28;20032;-74
2021/10/22 02:07:28;;;;;;;5.72;1.48;;;;;;;4.75;90.87;101076.03;5040735;28;20437;-73
2021/10/22 02:09:53;;;;;;;6.25;1.70;;;;;;;4.68;91.03;101068.78;5040173;28;20025;-73
2021/10/22 02:12:19;;;;;;;4.95;1.27;;;;;;;4.63;90.93;101074.16;5050674;28;20042;-73
2021/10/22 02:14:44;;;;;;;5.13;1.25;;;;;;;4.59;91.34;101072.94;5038626;28;20022;-73
2021/10/22 02:17:10;;;;;;;3.92;1.02;;;;;;;4.58;91.02;101079.53;5038037;28;20469;-73
2021/10/22 02:19:35;;;;;;;2.60;1.30;;;;;;;4.57;91.23;101083.38;5027831;28;20033;-73
2021/10/22 02:22:01;;;;;;;4.68;1.38;;;;;;;4.54;91.36;101072.00;5044424;28;20025;-73
2021/10/22 02:24:26;;;;;;;4.75;1.20;;;;;;;4.52;91.17;101080.50;5041634;28;20091;-73
2021/10/22 02:26:52;;;;;;;3.28;1.25;;;;;;;4.52;90.79;101082.41;5047121;28;20033;-73
2021/10/22 02:29:18;;;;;;;3.58;1.20;;;;;;;4.49;91.21;101083.72;5048215;28;20036;-73
2021/10/22 02:31:43;;;;;;;4.50;1.00;;;;;;;4.44;91.47;101086.34;5042170;28;20041;-74
2021/10/22 02:34:09;;;;;;;5.00;1.25;;;;;;;4.38;91.32;101085.41;5040224;28;20068;-74
2021/10/22 02:36:34;;;;;;;2.60;1.10;;;;;;;4.38;91.08;101087.31;5049895;28;20032;-73
2021/10/22 02:39:00;;;;;;;3.83;1.27;;;;;;;4.37;90.91;101093.88;5038774;28;20086;-73
2021/10/22 02:41:25;;;;;;;5.30;1.30;;;;;;;4.38;91.39;101092.81;5052802;28;20025;-74
2021/10/22 02:43:51;;;;;;;4.53;1.17;;;;;;;4.33;91.17;101101.78;5028711;28;20052;-73
2021/10/22 02:46:16;;;;;;;5.97;1.60;;;;;;;4.33;91.01;101098.19;5039779;28;20033;-73
2021/10/22 02:48:42;;;;;;;3.53;1.48;;;;;;;4.28;91.56;101098.06;5050771;28;20060;-73
2021/10/22 02:51:08;;;;;;;3.55;1.17;;;;;;;4.24;91.57;101095.81;5074895;28;20121;-73
2021/10/22 02:53:33;;;;;;;4.80;1.08;;;;;;;4.23;91.18;101088.63;5047875;28;20021;-74
2021/10/22 02:55:59;;;;;;;3.97;1.25;;;;;;;4.20;91.17;101094.59;5039956;28;20040;-73
2021/10/22 02:58:24;;;;;;;5.32;1.25;;;;;;;4.18;91.45;101095.88;5041952;28;20045;-73
2021/10/22 03:00:50;;;;;;;3.15;1.13;;;;;;;4.15;91.41;101088.13;5045649;28;20038;-73
2021/10/22 03:03:15;;;;;;;3.33;1.02;;;;;;;4.15;91.24;101094.47;5049741;28;20033;-73
2021/10/22 03:05:41;;;;;;;3.10;1.10;;;;;;;4.16;90.86;101093.41;5040332;28;20036;-74
2021/10/22 03:08:07;;;;;;;6.90;1.30;;;;;;;4.10;91.53;101097.09;5038886;28;20038;-74
2021/10/22 03:10:33;;;;;;;3.67;1.10;;;;;;;4.10;91.46;101097.09;5034958;28;20034;-73
2021/10/22 03:12:58;;;;;;;4.30;1.40;;;;;;;4.09;91.69;101098.16;5037265;28;20034;-73
2021/10/22 03:15:24;;;;;;;3.03;1.40;;;;;;;4.03;91.67;101090.84;5024483;28;20029;-73
2021/10/22 03:17:50;;;;;;;2.97;1.02;;;;;;;4.09;91.91;101089.06;5042163;28;20045;-73
2021/10/22 03:20:15;;;;;;;7.82;1.30;;;;;;;4.05;91.34;101090.63;5040507;28;20036;-73
2021/10/22 03:22:41;;;;;;;6.65;1.00;;;;;;;4.01;91.95;101090.25;5051837;28;20406;-73
2021/10/22 03:25:07;;;;;;;5.22;1.52;;;;;;;4.02;92.04;101086.44;5036690;28;20057;-73
2021/10/22 03:27:34;;;;;;;4.72;1.38;;;;;;;4.05;91.68;101087.88;5043688;28;20029;-74
2021/10/22 03:29:59;;;;;;;2.22;1.20;;;;;;;4.05;91.94;101079.66;5023685;28;20037;-73
2021/10/22 03:32:25;;;;;;;3.92;1.63;;;;;;;4.05;92.32;101082.41;5030155;28;20062;-73
2021/10/22 03:34:50;;;;;;;6.20;1.67;;;;;;;4.02;92.00;101089.19;5035403;28;20072;-73
2021/10/22 03:37:16;;;;;;;4.63;1.40;;;;;;;4.00;91.34;101091.34;5038392;28;20382;-73
2021/10/22 03:39:41;;;;;;;4.10;1.45;;;;;;;4.00;91.76;101085.84;5036756;28;20029;-73
2021/10/22 03:42:07;;;;;;;6.15;1.50;;;;;;;3.98;91.75;101083.34;5045974;28;20037;-73
2021/10/22 03:44:32;;;;;;;5.40;1.60;;;;;;;3.96;92.52;101081.91;5042422;28;20033;-74
2021/10/22 03:46:58;;;;;;;2.85;1.23;;;;;;;4.00;92.20;101085.84;5036560;28;20041;-74
2021/10/22 03:49:24;;;;;;;5.22;1.60;;;;;;;3.97;92.07;101087.16;5040788;28;20029;-73
2021/10/22 03:51:49;;;;;;;5.25;1.70;;;;;;;3.96;92.09;101090.16;5026856;28;20044;-73
2021/10/22 03:54:15;;;;;;;5.70;1.52;;;;;;;3.96;92.14;101080.00;5041026;28;20025;-73
2021/10/22 03:56:40;;;;;;;4.60;1.60;;;;;;;3.98;91.91;101087.97;5042293;28;20029;-74
2021/10/22 03:59:06;;;;;;;7.15;1.42;;;;;;;3.96;91.99;101088.22;5034459;28;20111;-73
2021/10/22 04:01:31;;;;;;;3.65;1.20;;;;;;;3.96;91.86;101101.97;5038626;28;20033;-73
2021/10/22 04:03:57;;;;;;;3.42;1.40;;;;;;;3.96;92.07;101101.13;5045102;28;20029;-73
2021/10/22 04:06:22;;;;;;;5.35;1.70;;;;;;;3.93;91.97;101096.94;5033915;28;20037;-73
2021/10/22 04:08:48;;;;;;;4.78;1.42;;;;;;;3.92;92.06;101092.50;5035714;28;20036;-74
2021/10/22 04:11:13;;;;;;;4.13;2.05;;;;;;;3.89;92.29;101103.97;5042232;28;20029;-73
2021/10/22 04:13:39;;;;;;;7.63;1.65;;;;;;;3.87;92.14;101108.03;5032332;28;20033;-73
2021/10/22 04:16:05;;;;;;;5.03;1.20;;;;;;;3.87;91.82;101110.78;5032215;28;20025;-73
2021/10/22 04:18:30;;;;;;;3.22;1.10;;;;;;;3.87;91.85;101110.78;5033034;28;20087;-73
2021/10/22 04:20:56;;;;;;;2.78;1.23;;;;;;;3.84;92.12;101109.34;5042129;28;20032;-73
2021/10/22 04:23:21;;;;;;;3.95;1.48;;;;;;;3.81;91.97;101118.88;5037889;28;20049;-73
2021/10/22 04:25:49;;;;;;;4.80;1.55;;;;;;;3.86;92.10;101120.09;5047515;28;20029;-74
2021/10/22 04:28:14;;;;;;;3.72;1.30;;;;;;;3.77;92.15;101122.34;5037352;28;20033;-73
2021/10/22 04:30:40;;;;;;;3.88;1.38;;;;;;;3.79;92.11;101121.03;5035788;28;20037;-73
2021/10/22 04:33:06;;;;;;;5.25;1.45;;;;;;;3.75;91.95;101130.81;5029552;28;20527;-73
2021/10/22 04:35:31;;;;;;;4.95;1.75;;;;;;;3.73;92.08;101134.88;5040991;28;20029;-73
2021/10/22 04:40:31;;;;;;;4.75;1.55;;;;;;;3.70;91.92;101140.81;5037320;28;20025;-73
2021/10/22 04:43:01;;;;;;;6.07;1.45;;;;;;;3.71;91.82;101143.34;5027032;28;20033;-73
2021/10/22 04:45:27;;;;;;;3.28;1.45;;;;;;;3.68;92.14;101149.31;5036655;28;20080;-73
2021/10/22 04:47:52;;;;;;;3.05;1.20;;;;;;;3.67;92.06;101147.63;5045823;28;20112;-73
2021/10/22 04:50:18;;;;;;;4.30;1.50;;;;;;;3.65;92.23;101148.91;5038364;28;20087;-73
2021/10/22 04:52:44;;;;;;;5.38;1.20;;;;;;;3.60;92.17;101149.63;5036443;28;20047;-73
2021/10/22 04:55:10;;;;;;;5.22;1.60;;;;;;;3.63;92.14;101151.91;5037856;28;20033;-73
2021/10/22 04:57:35;;;;;;;3.80;1.42;;;;;;;3.65;91.67;101149.78;5037639;28;20060;-73
2021/10/22 05:00:04;;;;;;;3.28;1.38;;;;;;;3.57;91.98;101152.84;5040567;28;20478;-73
2021/10/22 05:02:29;;;;;;;3.80;1.27;;;;;;;3.57;92.24;101144.63;5032734;28;20065;-73
2021/10/22 05:04:55;;;;;;;4.78;1.77;;;;;;;3.57;92.33;101144.63;5036841;28;20030;-73
2021/10/22 05:07:20;;;;;;;4.65;1.50;;;;;;;3.55;92.16;101155.00;5035675;28;20033;-73
2021/10/22 05:09:46;;;;;;;3.30;1.73;;;;;;;3.53;92.46;101146.13;5039152;28;20033;-73
2021/10/22 05:12:11;;;;;;;4.88;1.55;;;;;;;3.51;92.21;101143.63;5042493;28;20033;-73
2021/10/22 05:14:37;;;;;;;6.68;1.58;;;;;;;3.50;92.32;101147.44;5037551;28;20032;-73
2021/10/22 05:17:03;;;;;;;4.60;1.55;;;;;;;3.46;92.58;101150.91;5040735;28;20037;-73
2021/10/22 05:19:29;;;;;;;4.95;1.60;;;;;;;3.47;92.55;101158.88;5046394;28;20600;-73
2021/10/22 05:21:55;;;;;;;4.18;1.58;;;;;;;3.47;92.37;101153.38;5032476;28;20033;-73
2021/10/22 05:24:20;;;;;;;4.82;1.38;;;;;;;3.42;92.53;101160.66;5048182;28;20049;-73
2021/10/22 05:26:46;;;;;;;5.93;1.40;;;;;;;3.45;92.57;101157.44;5043519;28;20613;-74
2021/10/22 05:29:12;;;;;;;4.28;1.65;;;;;;;3.42;92.60;101155.97;5041279;28;20714;-73
2021/10/22 05:31:37;;;;;;;7.40;1.80;;;;;;;3.46;92.60;101161.88;5070492;28;20529;-72
2021/10/22 05:34:03;;;;;;;5.93;1.67;;;;;;;3.39;92.50;101159.19;5040709;28;20022;-71
2021/10/22 05:36:28;;;;;;;4.15;1.63;;;;;;;3.39;92.57;101155.63;5038880;28;20096;-72
2021/10/22 05:38:54;;;;;;;6.15;1.65;;;;;;;3.35;92.96;101161.56;5063025;28;20033;-71
2021/10/22 05:41:20;;;;;;;6.07;1.80;;;;;;;3.34;92.92;101165.41;5031879;28;20095;-72
2021/10/22 05:43:45;;;;;;;6.75;2.00;;;;;;;3.33;93.00;101163.69;5037527;28;20598;-72
2021/10/22 05:46:11;;;;;;;5.68;1.80;;;;;;;3.33;92.38;101166.44;5039772;28;20066;-72
2021/10/22 05:48:36;;;;;;;3.78;1.70;;;;;;;3.30;92.73;101175.16;5038080;28;20025;-72
2021/10/22 05:51:02;;;;;;;4.80;1.67;;;;;;;3.31;92.47;101176.81;5035859;28;20087;-72
2021/10/22 05:53:28;;;;;;;3.85;1.65;;;;;;;3.30;92.66;101172.41;5031291;28;20417;-72
2021/10/22 05:55:53;;;;;;;4.13;1.70;;;;;;;3.26;92.66;101173.06;5040190;28;20046;-72
2021/10/22 05:58:19;;;;;;;5.75;1.88;;;;;;;3.27;92.60;101180.25;5052069;28;20064;-72
2021/10/22 06:00:45;;;;;;;6.05;2.03;;;;;;;3.25;92.89;101172.25;5040306;28;20072;-72
2021/10/22 06:03:11;;;;;;;4.85;1.80;;;;;;;3.24;92.77;101173.31;5044041;28;20580;-73
2021/10/22 06:05:38;;;;;;;4.32;2.10;;;;;;;3.20;92.85;101166.59;5039184;28;20025;-73
2021/10/22 06:08:05;;;;;;;3.47;1.92;;;;;;;3.22;92.68;101174.63;5039676;28;20036;-73
2021/10/22 06:10:30;;;;;;;4.57;2.00;;;;;;;3.20;92.92;101171.25;5043835;28;21734;-73
2021/10/22 06:12:56;;;;;;;7.32;2.05;;;;;;;3.19;92.96;101173.16;5038689;28;20033;-73
2021/10/22 06:15:22;;;;;;;6.82;2.25;;;;;;;3.21;93.11;101173.78;5039445;28;20029;-73
2021/10/22 06:17:47;;;;;;;3.60;2.00;;;;;;;3.26;94.41;101181.31;5038457;28;20034;-73
2021/10/22 06:20:15;;;;;;;6.13;1.90;;;;;;;3.31;95.64;101176.81;5039234;28;20071;-73
2021/10/22 06:25:24;;;;;;;6.20;2.10;;;;;;;3.42;96.43;101166.13;5031565;28;20078;-69
2021/10/22 06:27:50;;;;;;;6.88;2.40;;;;;;;3.42;95.29;101177.13;5037254;28;20049;-68
2021/10/22 06:30:17;;;;;;;6.20;2.65;;;;;;;3.38;94.57;101179.50;5007174;28;20037;-69
2021/10/22 06:32:42;;;;;;;5.20;2.42;;;;;;;3.35;94.24;101177.22;5023163;28;20021;-69
2021/10/22 06:35:08;;;;;;;8.30;2.60;;;;;;;3.34;93.70;101178.25;5003828;28;20058;-68
2021/10/22 06:37:33;;;;;;;6.85;2.50;;;;;;;3.30;93.78;101175.16;5006068;28;20103;-67
2021/10/22 06:39:59;;;;;;;5.65;2.50;;;;;;;3.33;93.59;101182.09;5005447;28;20032;-67
2021/10/22 06:42:24;;;;;;;7.00;2.28;;;;;;;3.29;93.60;101189.97;5048209;28;20067;-67
2021/10/22 06:44:50;;;;;;;6.32;2.88;;;;;;;3.32;93.54;101200.47;5025279;28;20044;-67
2021/10/22 06:47:16;;;;;;;8.40;2.80;;;;;;;3.25;94.08;101199.69;5029182;28;20041;-69
2021/10/22 06:49:41;;;;;;;6.22;2.72;;;;;;;3.27;94.59;101207.72;5041480;28;20108;-66
2021/10/22 06:52:07;;;;;;;6.95;2.53;;;;;;;3.24;95.21;101203.53;5039781;28;20029;-67
2021/10/22 06:54:32;;;;;;;9.65;2.55;;;;;;;3.26;95.71;101214.25;5032757;28;20032;-66
2021/10/22 06:56:58;;;;;;;8.98;2.60;;;;;;;3.25;96.03;101226.31;5024097;28;20045;-66
2021/10/22 06:59:23;;;;;;;4.47;2.40;;;;;;;3.30;95.92;101218.25;5018667;28;20040;-66
2021/10/22 07:01:49;;;;;;;6.10;2.40;;;;;;;3.31;96.59;101228.16;5031735;28;20033;-66
2021/10/22 07:04:15;;;;;;;6.95;2.67;;;;;;;3.34;97.14;101228.56;4994174;28;20033;-67
2021/10/22 07:09:24;;;;;;;9.73;2.35;;;;;;;3.46;98.17;101223.13;5032090;28;20036;-67
2021/10/22 07:11:50;;;;;;;6.82;2.80;;;;;;;3.55;98.30;101226.41;5002681;28;20021;-66
2021/10/22 07:14:16;;;;;;;7.40;2.35;;;;;;;3.58;98.96;101214.94;5019814;28;20038;-66
2021/10/22 07:16:42;;;;;;;7.18;2.60;;;;;;;3.66;99.70;101228.38;5015001;28;20045;-67
2021/10/22 07:19:07;;;;;;;10.15;2.67;;;;;;;3.74;100.00;101225.31;5004157;28;20045;-67
2021/10/22 07:21:37;;;;;;;7.45;2.78;;;;;;;3.82;100.00;101237.91;5027975;28;20041;-67
2021/10/22 07:24:12;;;;;;;11.80;2.85;;;;;;;3.92;100.00;101242.81;5020364;28;20045;-66
2021/10/22 07:26:37;;;;;;;8.30;3.00;;;;;;;4.02;100.00;101248.63;5026575;28;20030;-66
2021/10/22 07:29:03;;;;;;;12.38;3.13;;;;;;;4.13;100.00;101238.75;5035930;28;20056;-66
2021/10/22 07:31:28;;;;;;;4.72;2.53;;;;;;;4.23;100.00;101245.34;5029515;28;20037;-67
2021/10/22 07:33:55;;;;;;;4.57;2.60;;;;;;;4.35;100.00;101241.81;5042425;28;20021;-66
2021/10/22 07:36:20;;;;;;;7.40;2.70;;;;;;;4.47;100.00;101246.25;5023476;28;20025;-67
2021/10/22 07:38:46;;;;;;;5.07;2.75;;;;;;;4.60;100.00;101250.72;5008286;28;20597;-67
2021/10/22 07:41:12;;;;;;;5.68;2.90;;;;;;;4.69;100.00;101253.94;5028288;28;20033;-67
2021/10/22 07:43:38;;;;;;;10.52;3.20;;;;;;;4.81;100.00;101251.22;5036944;28;20181;-67
2021/10/22 07:46:04;;;;;;;6.68;3.38;;;;;;;4.98;100.00;101252.16;5017384;28;20498;-66
2021/10/22 07:48:29;;;;;;;6.57;3.15;;;;;;;5.07;100.00;101259.03;5028834;28;20036;-67
2021/10/22 07:50:55;;;;;;;8.70;3.08;;;;;;;5.20;100.00;101254.34;5018938;28;20026;-67
2021/10/22 07:53:20;;;;;;;9.27;3.40;;;;;;;5.32;100.00;101260.66;5027759;28;20053;-67
2021/10/22 07:55:45;;;;;;;8.77;3.53;;;;;;;5.48;100.00;101259.94;5023876;28;20033;-67
2021/10/22 07:58:11;;;;;;;5.95;3.03;;;;;;;5.59;100.00;101272.84;5033505;28;20032;-67
2021/10/22 08:00:37;;;;;;;7.65;3.53;;;;;;;5.70;100.00;101271.16;5037501;28;20034;-67
2021/10/22 08:03:02;;;;;;;8.45;3.28;;;;;;;5.82;100.00;101271.13;5046535;28;20043;-67
2021/10/22 08:05:28;;;;;;;7.43;3.22;;;;;;;5.90;100.00;101279.00;5022951;28;20032;-67
2021/10/22 08:07:53;;;;;;;8.05;2.95;;;;;;;6.03;100.00;101281.53;5003763;28;20059;-67
2021/10/22 08:10:19;;;;;;;9.40;3.10;;;;;;;6.15;100.00;101283.41;5019215;28;20029;-67
2021/10/22 08:12:46;;;;;;;7.45;2.80;;;;;;;6.27;100.00;101281.44;5013770;28;20042;-67
2021/10/22 08:15:12;;;;;;;8.02;3.08;;;;;;;6.41;100.00;101291.09;5028832;28;20036;-67
2021/10/22 08:17:37;;;;;;;7.60;3.30;;;;;;;6.52;100.00;101300.41;5010363;28;20057;-66
2021/10/22 08:20:06;;;;;;;7.05;3.17;;;;;;;6.64;100.00;101300.31;5040909;28;20030;-67
2021/10/22 08:22:32;;;;;;;12.20;3.60;;;;;;;6.76;100.00;101309.38;5036157;28;20033;-67
2021/10/22 08:25:01;;;;;;;6.20;2.75;;;;;;;6.88;100.00;101315.69;5018368;28;20033;-67
2021/10/22 08:27:28;;;;;;;5.80;3.05;;;;;;;7.06;100.00;101311.00;5033459;28;20030;-67
2021/10/22 08:29:54;;;;;;;7.68;3.10;;;;;;;7.23;100.00;101316.50;5017830;28;20057;-67
2021/10/22 08:32:19;;;;;;;7.30;2.90;;;;;;;7.39;100.00;101322.00;5004106;28;20387;-67
2021/10/22 08:34:45;;;;;;;9.13;2.92;;;;;;;7.57;100.00;101331.94;5007452;28;20037;-67
2021/10/22 08:37:11;;;;;;;5.78;2.58;;;;;;;7.73;100.00;101329.41;5035404;28;20036;-67
2021/10/22 08:39:42;;;;;;;5.93;2.80;;;;;;;7.89;100.00;101336.00;5018396;28;20061;-67
2021/10/22 08:42:10;;;;;;;8.10;2.75;;;;;;;8.04;100.00;101325.94;5025749;28;20518;-67
2021/10/22 08:44:36;;;;;;;5.60;2.60;;;;;;;8.21;100.00;101333.34;5027627;28;20037;-67
2021/10/22 08:47:01;;;;;;;5.78;2.85;;;;;;;8.40;100.00;101331.13;5012571;28;20040;-67
2021/10/22 08:49:27;;;;;;;14.10;4.05;;;;;;;8.54;100.00;101332.38;5017852;28;20533;-67
2021/10/22 08:51:56;;;;;;;7.43;3.00;;;;;;;8.69;99.80;101342.78;5043383;28;20024;-67
2021/10/22 08:54:22;;;;;;;6.45;3.03;;;;;;;8.85;99.94;101343.75;5044293;28;20025;-67
2021/10/22 08:56:47;;;;;;;6.35;2.60;;;;;;;9.01;100.00;101347.53;5008270;28;20029;-67
2021/10/22 08:59:13;;;;;;;8.02;2.85;;;;;;;9.15;100.00;101348.75;5070579;28;20026;-67
2021/10/22 09:02:16;;;;;;;8.60;3.10;;;;;;;9.32;100.00;101355.00;5054008;28;20038;-67
2021/10/22 09:04:48;;;;;;;4.50;2.67;;;;;;;9.49;99.85;101354.00;5068540;28;20065;-67
2021/10/22 09:07:18;;;;;;;7.50;3.38;;;;;;;9.64;98.99;101370.78;5042157;28;20041;-67
2021/10/22 09:09:45;;;;;;;5.32;2.78;;;;;;;9.79;100.00;101365.31;5041586;28;20039;-67
2021/10/22 09:12:11;;;;;;;6.63;3.10;;;;;;;9.93;99.71;101371.22;5033869;28;20080;-67
2021/10/22 09:14:39;;;;;;;6.28;2.80;;;;;;;10.07;97.56;101369.63;5030221;28;20029;-67
2021/10/22 09:17:11;;;;;;;5.78;2.25;;;;;;;10.22;96.23;101368.88;5050764;28;20040;-67
2021/10/22 09:19:41;;;;;;;;;;;;;;;10.38;97.41;101382.84;5037884;28;20025;-67
2021/10/22 09:22:29;;;;;;;6.97;2.60;;;;;;;10.51;97.59;101377.63;5036857;28;19924;-67
2021/10/22 09:25:00;;;;;;;6.18;2.10;;;;;;;10.64;96.81;101384.63;5036041;28;20430;-67
2021/10/22 09:27:36;;;;;;;7.65;2.28;;;;;;;10.78;96.26;101376.59;5034519;28;20033;-67
2021/10/22 09:30:03;;;;;;;6.10;1.90;;;;;;;10.92;94.86;101374.94;5056924;28;20028;-67
2021/10/22 09:32:30;;;;;;;5.80;2.20;;;;;;;11.07;95.11;101379.69;5007187;28;20041;-67
2021/10/22 09:34:55;;;;;;;5.72;2.13;;;;;;;11.20;94.35;101381.09;5009612;28;20028;-67
2021/10/22 09:37:21;;;;;;;5.90;2.40;;;;;;;11.32;96.04;101383.59;5037270;28;20025;-67
2021/10/22 09:39:46;;;;;;;6.40;2.00;;;;;;;11.44;94.95;101380.53;5020607;28;20064;-67
2021/10/22 09:42:17;;;;;;;6.60;2.25;;;;;;;11.56;93.47;101393.06;5036815;28;20056;-67
2021/10/22 09:44:44;;;;;;;8.50;2.05;;;;;;;11.68;95.20;101383.59;5007518;28;20108;-67
2021/10/22 09:47:09;;;;;;;6.63;2.50;;;;;;;11.79;93.47;101388.84;5038408;28;20033;-67
2021/10/22 09:49:41;;;;;;;8.27;2.25;;;;;;;11.94;92.73;101392.75;5038706;28;20478;-67
2021/10/22 09:52:21;;;;;;;7.70;2.20;;;;;;;12.06;92.65;101401.63;5068083;28;20033;-68
2021/10/22 09:54:47;;;;;;;9.60;2.67;;;;;;;12.19;93.41;101401.03;5024274;28;20100;-67
2021/10/22 09:57:15;;;;;;;5.22;2.45;;;;;;;12.30;92.88;101404.63;5038167;28;20067;-68
2021/10/22 09:59:41;;;;;;;5.68;2.35;;;;;;;12.39;92.93;101400.13;5021154;28;20033;-67
2021/10/22 10:02:08;;;;;;;9.43;2.55;;;;;;;12.49;93.40;101393.69;5026934;28;20036;-67
2021/10/22 10:04:33;;;;;;;5.90;2.20;;;;;;;12.55;93.10;101398.09;5025350;28;20048;-68
2021/10/22 10:07:00;;;;;;;7.18;1.95;;;;;;;12.65;92.30;101402.81;5034704;28;20021;-67
2021/10/22 10:09:29;;;;;;;7.25;2.20;;;;;;;12.74;92.32;101407.50;5031200;28;20048;-67
2021/10/22 10:12:04;;;;;;;8.35;2.38;;;;;;;12.85;91.71;101413.03;5014918;28;20033;-67
2021/10/22 10:14:29;;;;;;;6.05;2.10;;;;;;;12.94;91.61;101416.84;5055401;28;20215;-67
2021/10/22 10:16:59;;;;;;;5.57;1.95;;;;;;;13.04;91.97;101416.81;5041446;28;20502;-67
2021/10/22 10:19:36;;;;;;;8.40;2.33;;;;;;;13.14;91.14;101415.88;5020179;28;20037;-67
2021/10/22 10:22:09;;;;;;;7.28;2.03;;;;;;;13.23;90.68;101418.91;5038421;28;20029;-67
2021/10/22 10:24:40;;;;;;;6.18;2.13;;;;;;;13.28;90.93;101414.16;5009073;28;20040;-67
2021/10/22 10:27:10;;;;;;;6.43;2.38;;;;;;;13.33;91.43;101418.84;5040646;28;20060;-67
2021/10/22 10:29:44;;;;;;;8.52;2.47;;;;;;;13.35;91.58;101416.63;5042836;28;20034;-67
2021/10/22 10:32:17;;;;;;;7.30;2.30;;;;;;;13.42;91.63;101411.53;5058743;28;20062;-67
2021/10/22 10:34:45;;;;;;;;;;;;;;;13.47;91.28;101417.06;5041061;28;20022;-68
2021/10/22 10:37:25;;;;;;;8.32;2.28;;;;;;;13.52;90.51;101416.22;5041495;28;20657;-68
2021/10/22 10:39:59;;;;;;;10.18;2.22;;;;;;;13.57;89.83;101418.97;5031354;28;20057;-68
2021/10/22 10:42:34;;;;;;;8.77;1.65;;;;;;;13.62;89.79;101416.97;5029932;28;20037;-69
2021/10/22 10:45:07;;;;;;;5.07;1.92;;;;;;;13.72;89.66;101415.19;5031473;28;20034;-70
2021/10/22 10:47:39;;;;;;;6.20;1.98;;;;;;;13.77;89.26;101412.34;5025906;28;20037;-69
2021/10/22 10:50:07;;;;;;;7.57;2.03;;;;;;;13.78;88.45;101423.22;5034519;28;20057;-70
2021/10/22 10:52:39;;;;;;;8.20;2.00;;;;;;;13.88;87.95;101416.72;5038589;28;20072;-70
2021/10/22 10:55:26;;;;;;;7.40;2.05;;;;;;;13.97;88.54;101420.53;5037654;28;20037;-68
2021/10/22 10:58:02;;;;;;;8.32;1.80;;;;;;;14.01;86.71;101424.41;5040030;28;20041;-68
2021/10/22 11:00:38;;;;;;;7.22;1.85;;;;;;;14.10;87.88;101424.59;5023797;28;20025;-68
2021/10/22 11:03:04;;;;;;;6.10;2.00;;;;;;;14.17;86.59;101425.06;5008795;28;20485;-68
2021/10/22 11:05:46;;;;;;;8.10;1.80;;;;;;;14.13;84.00;101428.75;5035688;28;20052;-68
2021/10/22 11:08:13;;;;;;;7.50;1.75;;;;;;;14.07;83.31;101426.00;5039051;28;20033;-67
2021/10/22 11:10:59;;;;;;;6.32;1.35;;;;;;;14.08;82.46;101422.06;5050225;28;20078;-68
2021/10/22 11:13:40;;;;;;;10.98;1.80;;;;;;;14.14;83.23;101417.28;5044521;28;20033;-67
2021/10/22 11:16:05;;;;;;;5.22;1.35;;;;;;;14.17;82.35;101425.06;5018909;28;20029;-68
2021/10/22 11:18:30;;;;;;;7.20;1.17;;;;;;;14.11;79.78;101425.41;5018786;28;20029;-68
2021/10/22 11:20:56;;;;;;;7.47;1.25;;;;;;;14.16;79.45;101425.38;4995802;28;20387;-68
2021/10/22 11:23:21;;;;;;;8.85;1.90;;;;;;;14.22;80.06;101419.41;5037242;28;20128;-67
2021/10/22 11:25:54;;;;;;;6.55;1.42;;;;;;;14.25;81.13;101423.59;5022022;28;20037;-68
2021/10/22 11:28:30;;;;;;;6.88;1.40;;;;;;;14.24;81.91;101427.50;5020757;28;20048;-68
2021/10/22 11:30:56;;;;;;;6.13;1.27;;;;;;;14.29;82.98;101421.84;4994993;28;20026;-68
2021/10/22 11:33:27;;;;;;;7.93;1.40;;;;;;;14.38;81.60;101425.66;4995453;28;20040;-68
2021/10/22 11:35:53;;;;;;;3.53;1.00;;;;;;;14.48;81.96;101421.91;5046586;28;20043;-68
2021/10/22 11:38:28;;;;;;;7.65;1.30;;;;;;;14.60;81.14;101424.31;5035922;28;20537;-68